Map

Track Data

SID SEASON NUMBER BASIN SUBBASIN NAME ISO_TIME NATURE LAT LON WMO_WIND WMO_PRES WMO_AGENCY TRACK_TYPE DIST2LAND LANDFALL IFLAG USA_AGENCY USA_ATCF_ID USA_LAT USA_LON USA_RECORD USA_STATUS USA_WIND USA_PRES USA_SSHS USA_R34_NE USA_R34_SE USA_R34_SW USA_R34_NW USA_R50_NE USA_R50_SE USA_R50_SW USA_R50_NW USA_R64_NE USA_R64_SE USA_R64_SW USA_R64_NW USA_POCI USA_ROCI USA_RMW USA_EYE TOKYO_LAT TOKYO_LON TOKYO_GRADE TOKYO_WIND TOKYO_PRES TOKYO_R50_DIR TOKYO_R50_LONG TOKYO_R50_SHORT TOKYO_R30_DIR TOKYO_R30_LONG TOKYO_R30_SHORT TOKYO_LAND CMA_LAT CMA_LON CMA_CAT CMA_WIND CMA_PRES HKO_LAT HKO_LON HKO_CAT HKO_WIND HKO_PRES NEWDELHI_LAT NEWDELHI_LON NEWDELHI_GRADE NEWDELHI_WIND NEWDELHI_PRES NEWDELHI_CI NEWDELHI_DP NEWDELHI_POCI REUNION_LAT REUNION_LON REUNION_TYPE REUNION_WIND REUNION_PRES REUNION_TNUM REUNION_CI REUNION_RMW REUNION_R34_NE REUNION_R34_SE REUNION_R34_SW REUNION_R34_NW REUNION_R50_NE REUNION_R50_SE REUNION_R50_SW REUNION_R50_NW REUNION_R64_NE REUNION_R64_SE REUNION_R64_SW REUNION_R64_NW BOM_LAT BOM_LON BOM_TYPE BOM_WIND BOM_PRES BOM_TNUM BOM_CI BOM_RMW BOM_R34_NE BOM_R34_SE BOM_R34_SW BOM_R34_NW BOM_R50_NE BOM_R50_SE BOM_R50_SW BOM_R50_NW BOM_R64_NE BOM_R64_SE BOM_R64_SW BOM_R64_NW BOM_ROCI BOM_POCI BOM_EYE BOM_POS_METHOD BOM_PRES_METHOD NADI_LAT NADI_LON NADI_CAT NADI_WIND NADI_PRES WELLINGTON_LAT WELLINGTON_LON WELLINGTON_WIND WELLINGTON_PRES DS824_LAT DS824_LON DS824_STAGE DS824_WIND DS824_PRES TD9636_LAT TD9636_LON TD9636_STAGE TD9636_WIND TD9636_PRES TD9635_LAT TD9635_LON TD9635_WIND TD9635_PRES TD9635_ROCI NEUMANN_LAT NEUMANN_LON NEUMANN_CLASS NEUMANN_WIND NEUMANN_PRES MLC_LAT MLC_LON MLC_CLASS MLC_WIND MLC_PRES USA_GUST BOM_GUST BOM_GUST_PER REUNION_GUST REUNION_GUST_PER USA_SEAHGT USA_SEARAD_NE USA_SEARAD_SE USA_SEARAD_SW USA_SEARAD_NW STORM_SPEED STORM_DIR
1976320N11087 1976 136 NI BB NOT_NAMED 1976-11-15 00:00:00 TS 10.6000 87.4000 main 700 630 O________OO___ jtwc_io IO121976 10.6000 87.4000 -1 10.6000 87.4000 TC 25 10.6000 87.4000 1 18 286
1976320N11087 1976 136 NI BB NOT_NAMED 1976-11-15 03:00:00 TS 10.8405 86.5384 main 620 569 P________PP___ IO121976 10.8455 86.5228 -1 10.8455 86.5228 TC 25 10.8304 86.5695 1 17 287
1976320N11087 1976 136 NI BB NOT_NAMED 1976-11-15 06:00:00 TS 11.0925 85.7236 main 560 514 O________OP___ jtwc_io IO121976 11.1000 85.7000 -1 11.1000 85.7000 TC 25 11.0776 85.7707 1 16 289
1976320N11087 1976 136 NI BB NOT_NAMED 1976-11-15 09:00:00 TS 11.3719 85.0005 main 514 465 P________PP___ IO121976 11.3773 84.9824 -1 11.3773 84.9824 TC 25 11.3610 85.0366 1 14 295
1976320N11087 1976 136 NI BB NOT_NAMED 1976-11-15 12:00:00 TS 11.7000 84.4000 main 465 415 O________OO___ jtwc_io IO121976 11.7000 84.4000 -1 11.7000 84.4000 TC 25 11.7000 84.4000 1 13 305
1976320N11087 1976 136 NI BB NOT_NAMED 1976-11-15 15:00:00 TS 12.0865 83.9403 main 404 368 P________PP___ IO121976 12.0772 83.9697 -1 12.0772 83.9697 TC 30 12.1051 83.8814 1 12 315
1976320N11087 1976 136 NI BB NOT_NAMED 1976-11-15 18:00:00 TS 12.5162 83.5508 main 368 306 O________OP___ jtwc_io IO121976 12.5000 83.6000 -1 12.5000 83.6000 TC 35 12.5486 83.4523 1 12 318
1976320N11087 1976 136 NI BB NOT_NAMED 1976-11-15 21:00:00 TS 12.9743 83.1241 main 305 259 P________PP___ IO121976 12.9650 83.1501 -1 12.9650 83.1501 TC 50 12.9928 83.0720 1 12 317
1976320N11087 1976 136 NI BB NOT_NAMED 1976-11-16 00:00:00 TS 13.4000 82.7000 main 259 216 O________OO___ jtwc_io IO121976 13.4000 82.7000 -1 13.4000 82.7000 TC 65 13.4000 82.7000 4 11 313
1976320N11087 1976 136 NI BB NOT_NAMED 1976-11-16 03:00:00 TS 13.7339 82.2954 main 216 174 P________PP___ IO121976 13.7299 82.2998 -1 13.7299 82.2998 TC 65 13.7421 82.2868 4 10 308
1976320N11087 1976 136 NI BB NOT_NAMED 1976-11-16 06:00:00 TS 14.0131 81.8907 main 174 137 O________OP___ jtwc_io IO121976 14.0000 81.9000 -1 14.0000 81.9000 TC 65 14.0394 81.8721 4 10 304
1976320N11087 1976 136 NI BB NOT_NAMED 1976-11-16 09:00:00 TS 14.2790 81.4587 main 141 86 P________PP___ IO121976 14.2724 81.4650 -1 14.2724 81.4650 TC 65 14.2920 81.4463 4 10 299
1976320N11087 1976 136 NI BB NOT_NAMED 1976-11-16 12:00:00 TS 14.5000 81.0000 main 86 34 O________OO___ jtwc_io IO121976 14.5000 81.0000 -1 14.5000 81.0000 TC 65 14.5000 81.0000 4 10 293
1976320N11087 1976 136 NI BB NOT_NAMED 1976-11-16 15:00:00 TS 14.6764 80.5134 main 34 0 P________PP___ IO121976 14.6724 80.5074 -1 14.6724 80.5074 TC 50 14.6842 80.5254 4 10 288
1976320N11087 1976 136 NI BB NOT_NAMED 1976-11-16 18:00:00 TS 14.8082 80.0099 main 0 0 O________OP___ jtwc_io IO121976 14.8000 80.0000 -1 14.8000 80.0000 TC 35 14.8247 80.0297 4 10 284
1976320N11087 1976 136 NI BB NOT_NAMED 1976-11-16 21:00:00 TS 14.9192 79.5064 main 0 0 P________PP___ IO121976 14.9149 79.5000 -1 14.9149 79.5000 TC 30 14.9279 79.5192 4 10 281
1976320N11087 1976 136 NI BB NOT_NAMED 1976-11-17 00:00:00 TS 15.0000 79.0000 main 0 0 O________OO___ jtwc_io IO121976 15.0000 79.0000 -1 15.0000 79.0000 TC 25 15.0000 79.0000 1 10 278
1976320N11087 1976 136 NI BB NOT_NAMED 1976-11-17 03:00:00 TS 15.0590 78.4974 main 0 0 P________PP___ IO121976 15.0648 78.5075 -1 15.0648 78.5075 TC 25 15.0474 78.4772 1 10 275
1976320N11087 1976 136 NI AS NOT_NAMED 1976-11-17 06:00:00 TS 15.0920 77.9842 main 0 0 O________OP___ jtwc_io IO121976 15.1000 78.0000 -1 15.1000 78.0000 TC 25 15.0759 77.9525 1 10 272
1976320N11087 1976 136 NI AS NOT_NAMED 1976-11-17 09:00:00 TS 15.1024 77.4489 main 0 0 P________PP___ IO121976 15.1078 77.4600 -1 15.1078 77.4600 TC 25 15.0915 77.4266 1 10 270
1976320N11087 1976 136 NI AS NOT_NAMED 1976-11-17 12:00:00 TS 15.1000 76.9000 main 0 O________OO___ jtwc_io IO121976 15.1000 76.9000 -1 15.1000 76.9000 TC 25 15.1000 76.9000 6 11 270

About IBTrACS Database

This database is a web-friendly format of International Best Track Archive for Climate Stewardship (IBTrACS), a global best track data archive curated by NOAA dating back to 1842.

Updated: 2021-12-08